sensor_id;sensor_type;location;lat;lon;timestamp;P1;durP1;ratioP1;P2;durP2;ratioP2
14001;SDS011;7076;51.280;12.584;2022-12-18T00:03:56;16.30;;;9.13;;
14001;SDS011;7076;51.280;12.584;2022-12-18T00:09:00;18.43;;;8.87;;
14001;SDS011;7076;51.280;12.584;2022-12-18T00:14:05;13.67;;;8.50;;
14001;SDS011;7076;51.280;12.584;2022-12-18T00:19:08;18.47;;;9.60;;
14001;SDS011;7076;51.280;12.584;2022-12-18T00:24:12;17.97;;;8.13;;
14001;SDS011;7076;51.280;12.584;2022-12-18T00:29:16;19.43;;;9.10;;
14001;SDS011;7076;51.280;12.584;2022-12-18T00:34:19;14.33;;;8.23;;
14001;SDS011;7076;51.280;12.584;2022-12-18T00:39:22;18.07;;;8.10;;
14001;SDS011;7076;51.280;12.584;2022-12-18T00:44:26;19.57;;;8.07;;
14001;SDS011;7076;51.280;12.584;2022-12-18T00:49:29;17.33;;;8.90;;
14001;SDS011;7076;51.280;12.584;2022-12-18T00:54:31;15.53;;;8.60;;
14001;SDS011;7076;51.280;12.584;2022-12-18T00:59:36;13.73;;;8.03;;
14001;SDS011;7076;51.280;12.584;2022-12-18T01:04:38;19.07;;;9.20;;
14001;SDS011;7076;51.280;12.584;2022-12-18T01:09:41;17.63;;;8.37;;
14001;SDS011;7076;51.280;12.584;2022-12-18T01:14:45;15.57;;;8.17;;
14001;SDS011;7076;51.280;12.584;2022-12-18T01:19:48;16.63;;;8.13;;
14001;SDS011;7076;51.280;12.584;2022-12-18T01:24:51;12.43;;;7.47;;
14001;SDS011;7076;51.280;12.584;2022-12-18T01:29:57;14.80;;;6.97;;
14001;SDS011;7076;51.280;12.584;2022-12-18T01:35:00;14.80;;;7.60;;
14001;SDS011;7076;51.280;12.584;2022-12-18T01:40:03;15.50;;;7.93;;
14001;SDS011;7076;51.280;12.584;2022-12-18T01:45:22;12.37;;;7.13;;
14001;SDS011;7076;51.280;12.584;2022-12-18T01:50:28;14.60;;;7.67;;
14001;SDS011;7076;51.280;12.584;2022-12-18T01:55:35;17.20;;;8.97;;
14001;SDS011;7076;51.280;12.584;2022-12-18T02:00:41;16.07;;;7.50;;
14001;SDS011;7076;51.280;12.584;2022-12-18T02:05:46;12.77;;;7.33;;
14001;SDS011;7076;51.280;12.584;2022-12-18T02:10:54;18.30;;;8.57;;
14001;SDS011;7076;51.280;12.584;2022-12-18T02:16:03;17.83;;;8.37;;
14001;SDS011;7076;51.280;12.584;2022-12-18T02:21:12;17.73;;;8.87;;
14001;SDS011;7076;51.280;12.584;2022-12-18T02:26:22;12.60;;;7.37;;
14001;SDS011;7076;51.280;12.584;2022-12-18T02:31:30;16.17;;;8.30;;
14001;SDS011;7076;51.280;12.584;2022-12-18T02:36:36;13.43;;;7.83;;
14001;SDS011;7076;51.280;12.584;2022-12-18T02:41:42;12.97;;;7.63;;
14001;SDS011;7076;51.280;12.584;2022-12-18T02:46:46;12.70;;;7.57;;
14001;SDS011;7076;51.280;12.584;2022-12-18T02:51:52;13.40;;;7.63;;
14001;SDS011;7076;51.280;12.584;2022-12-18T02:56:58;13.23;;;7.83;;
14001;SDS011;7076;51.280;12.584;2022-12-18T03:02:14;12.53;;;7.37;;
14001;SDS011;7076;51.280;12.584;2022-12-18T03:07:23;13.70;;;7.40;;
14001;SDS011;7076;51.280;12.584;2022-12-18T03:12:34;15.83;;;7.53;;
14001;SDS011;7076;51.280;12.584;2022-12-18T03:17:39;13.53;;;6.97;;
14001;SDS011;7076;51.280;12.584;2022-12-18T03:22:44;11.00;;;7.83;;
14001;SDS011;7076;51.280;12.584;2022-12-18T03:27:51;13.17;;;7.00;;
14001;SDS011;7076;51.280;12.584;2022-12-18T03:33:00;14.67;;;8.10;;
14001;SDS011;7076;51.280;12.584;2022-12-18T03:38:05;14.67;;;7.30;;
14001;SDS011;7076;51.280;12.584;2022-12-18T03:43:14;15.50;;;7.73;;
14001;SDS011;7076;51.280;12.584;2022-12-18T03:48:24;14.57;;;7.27;;
14001;SDS011;7076;51.280;12.584;2022-12-18T03:53:35;15.00;;;8.10;;
14001;SDS011;7076;51.280;12.584;2022-12-18T03:58:43;15.27;;;7.33;;
14001;SDS011;7076;51.280;12.584;2022-12-18T04:03:58;15.67;;;8.40;;
14001;SDS011;7076;51.280;12.584;2022-12-18T04:09:07;11.93;;;7.17;;
14001;SDS011;7076;51.280;12.584;2022-12-18T04:14:15;12.00;;;6.33;;
14001;SDS011;7076;51.280;12.584;2022-12-18T04:19:22;13.20;;;6.63;;
14001;SDS011;7076;51.280;12.584;2022-12-18T04:24:26;11.13;;;5.87;;
14001;SDS011;7076;51.280;12.584;2022-12-18T04:29:43;14.23;;;6.40;;
14001;SDS011;7076;51.280;12.584;2022-12-18T04:34:46;13.97;;;6.40;;
14001;SDS011;7076;51.280;12.584;2022-12-18T04:39:49;13.33;;;7.20;;
14001;SDS011;7076;51.280;12.584;2022-12-18T04:45:04;13.50;;;7.20;;
14001;SDS011;7076;51.280;12.584;2022-12-18T04:50:07;9.93;;;5.87;;
14001;SDS011;7076;51.280;12.584;2022-12-18T04:55:10;11.80;;;6.43;;
14001;SDS011;7076;51.280;12.584;2022-12-18T05:00:15;10.80;;;4.87;;
14001;SDS011;7076;51.280;12.584;2022-12-18T05:05:18;9.33;;;5.23;;
14001;SDS011;7076;51.280;12.584;2022-12-18T05:10:20;12.90;;;5.73;;
14001;SDS011;7076;51.280;12.584;2022-12-18T05:15:25;10.87;;;6.33;;
14001;SDS011;7076;51.280;12.584;2022-12-18T05:20:30;10.97;;;5.97;;
14001;SDS011;7076;51.280;12.584;2022-12-18T05:25:33;10.57;;;5.83;;
14001;SDS011;7076;51.280;12.584;2022-12-18T05:30:37;10.50;;;5.13;;
14001;SDS011;7076;51.280;12.584;2022-12-18T05:35:39;12.00;;;5.73;;
14001;SDS011;7076;51.280;12.584;2022-12-18T05:40:42;11.70;;;5.90;;
14001;SDS011;7076;51.280;12.584;2022-12-18T05:45:46;8.67;;;4.97;;
14001;SDS011;7076;51.280;12.584;2022-12-18T05:50:50;10.47;;;6.00;;
14001;SDS011;7076;51.280;12.584;2022-12-18T05:55:53;9.67;;;5.67;;
14001;SDS011;7076;51.280;12.584;2022-12-18T06:00:57;10.37;;;5.50;;
14001;SDS011;7076;51.280;12.584;2022-12-18T06:06:00;10.77;;;6.23;;
14001;SDS011;7076;51.280;12.584;2022-12-18T06:11:03;10.17;;;5.80;;
14001;SDS011;7076;51.280;12.584;2022-12-18T06:16:07;12.63;;;5.57;;
14001;SDS011;7076;51.280;12.584;2022-12-18T06:21:10;9.33;;;4.73;;
14001;SDS011;7076;51.280;12.584;2022-12-18T06:26:13;10.40;;;5.63;;
14001;SDS011;7076;51.280;12.584;2022-12-18T06:31:17;10.23;;;6.17;;
14001;SDS011;7076;51.280;12.584;2022-12-18T06:36:20;9.77;;;5.57;;
14001;SDS011;7076;51.280;12.584;2022-12-18T06:41:23;9.00;;;4.97;;
14001;SDS011;7076;51.280;12.584;2022-12-18T06:46:27;8.93;;;4.60;;
14001;SDS011;7076;51.280;12.584;2022-12-18T06:51:30;9.63;;;5.50;;
14001;SDS011;7076;51.280;12.584;2022-12-18T06:56:33;10.10;;;5.90;;
14001;SDS011;7076;51.280;12.584;2022-12-18T07:01:37;8.23;;;5.30;;
14001;SDS011;7076;51.280;12.584;2022-12-18T07:06:40;14.80;;;5.80;;
14001;SDS011;7076;51.280;12.584;2022-12-18T07:11:43;10.67;;;6.37;;
14001;SDS011;7076;51.280;12.584;2022-12-18T07:16:47;12.47;;;5.87;;
14001;SDS011;7076;51.280;12.584;2022-12-18T07:21:49;21.07;;;12.10;;
14001;SDS011;7076;51.280;12.584;2022-12-18T07:26:52;13.80;;;6.83;;
14001;SDS011;7076;51.280;12.584;2022-12-18T07:31:56;12.20;;;6.37;;
14001;SDS011;7076;51.280;12.584;2022-12-18T07:36:59;10.57;;;6.10;;
14001;SDS011;7076;51.280;12.584;2022-12-18T07:42:02;10.63;;;5.53;;
14001;SDS011;7076;51.280;12.584;2022-12-18T07:47:29;10.70;;;5.33;;
14001;SDS011;7076;51.280;12.584;2022-12-18T07:52:32;13.10;;;5.83;;
14001;SDS011;7076;51.280;12.584;2022-12-18T07:57:35;11.47;;;6.33;;
14001;SDS011;7076;51.280;12.584;2022-12-18T08:02:59;11.90;;;6.23;;
14001;SDS011;7076;51.280;12.584;2022-12-18T08:08:02;12.93;;;6.63;;
14001;SDS011;7076;51.280;12.584;2022-12-18T08:13:05;17.17;;;7.37;;
14001;SDS011;7076;51.280;12.584;2022-12-18T08:18:09;14.77;;;7.67;;
14001;SDS011;7076;51.280;12.584;2022-12-18T08:23:15;12.53;;;7.33;;
14001;SDS011;7076;51.280;12.584;2022-12-18T08:28:17;15.13;;;8.17;;
14001;SDS011;7076;51.280;12.584;2022-12-18T08:33:21;14.60;;;7.17;;
14001;SDS011;7076;51.280;12.584;2022-12-18T08:38:24;16.17;;;7.83;;
14001;SDS011;7076;51.280;12.584;2022-12-18T08:43:27;12.33;;;7.07;;
14001;SDS011;7076;51.280;12.584;2022-12-18T08:48:49;15.70;;;7.00;;
14001;SDS011;7076;51.280;12.584;2022-12-18T08:53:53;10.90;;;6.50;;
14001;SDS011;7076;51.280;12.584;2022-12-18T08:58:55;7.77;;;5.13;;
14001;SDS011;7076;51.280;12.584;2022-12-18T09:04:00;6.10;;;3.93;;
14001;SDS011;7076;51.280;12.584;2022-12-18T09:09:03;8.10;;;4.70;;
14001;SDS011;7076;51.280;12.584;2022-12-18T09:14:06;8.13;;;4.67;;
14001;SDS011;7076;51.280;12.584;2022-12-18T09:19:12;8.80;;;5.07;;
14001;SDS011;7076;51.280;12.584;2022-12-18T09:24:14;7.23;;;3.97;;
14001;SDS011;7076;51.280;12.584;2022-12-18T09:29:17;7.23;;;4.00;;
14001;SDS011;7076;51.280;12.584;2022-12-18T09:34:22;12.57;;;6.40;;
14001;SDS011;7076;51.280;12.584;2022-12-18T09:39:24;8.13;;;5.30;;
14001;SDS011;7076;51.280;12.584;2022-12-18T09:44:27;10.13;;;6.90;;
14001;SDS011;7076;51.280;12.584;2022-12-18T09:49:34;6.03;;;4.27;;
14001;SDS011;7076;51.280;12.584;2022-12-18T09:54:44;5.20;;;2.90;;
14001;SDS011;7076;51.280;12.584;2022-12-18T09:59:50;6.30;;;2.97;;
14001;SDS011;7076;51.280;12.584;2022-12-18T10:05:01;7.60;;;3.83;;
14001;SDS011;7076;51.280;12.584;2022-12-18T10:10:07;5.77;;;3.00;;
14001;SDS011;7076;51.280;12.584;2022-12-18T10:15:16;8.40;;;3.80;;
14001;SDS011;7076;51.280;12.584;2022-12-18T10:20:24;8.20;;;4.37;;
14001;SDS011;7076;51.280;12.584;2022-12-18T10:25:31;5.40;;;4.03;;
14001;SDS011;7076;51.280;12.584;2022-12-18T10:30:39;7.77;;;3.90;;
14001;SDS011;7076;51.280;12.584;2022-12-18T10:35:44;4.63;;;3.20;;
14001;SDS011;7076;51.280;12.584;2022-12-18T10:40:48;4.80;;;3.27;;
14001;SDS011;7076;51.280;12.584;2022-12-18T10:46:03;6.97;;;4.57;;
14001;SDS011;7076;51.280;12.584;2022-12-18T10:51:09;8.10;;;4.47;;
14001;SDS011;7076;51.280;12.584;2022-12-18T10:56:13;7.90;;;4.63;;
14001;SDS011;7076;51.280;12.584;2022-12-18T11:01:22;9.10;;;5.13;;
14001;SDS011;7076;51.280;12.584;2022-12-18T11:06:26;7.37;;;5.17;;
14001;SDS011;7076;51.280;12.584;2022-12-18T11:11:29;8.03;;;4.33;;
14001;SDS011;7076;51.280;12.584;2022-12-18T11:16:36;9.30;;;5.23;;
14001;SDS011;7076;51.280;12.584;2022-12-18T11:22:18;9.30;;;5.53;;
14001;SDS011;7076;51.280;12.584;2022-12-18T11:27:22;8.00;;;4.87;;
14001;SDS011;7076;51.280;12.584;2022-12-18T11:32:32;7.63;;;4.53;;
14001;SDS011;7076;51.280;12.584;2022-12-18T11:37:38;11.50;;;5.73;;
14001;SDS011;7076;51.280;12.584;2022-12-18T11:42:44;9.17;;;6.17;;
14001;SDS011;7076;51.280;12.584;2022-12-18T11:47:49;8.53;;;6.07;;
14001;SDS011;7076;51.280;12.584;2022-12-18T11:52:58;9.40;;;5.83;;
14001;SDS011;7076;51.280;12.584;2022-12-18T11:58:07;10.33;;;6.60;;
14001;SDS011;7076;51.280;12.584;2022-12-18T12:03:23;10.63;;;6.57;;
14001;SDS011;7076;51.280;12.584;2022-12-18T12:08:34;12.27;;;7.00;;
14001;SDS011;7076;51.280;12.584;2022-12-18T12:13:45;10.00;;;6.07;;
14001;SDS011;7076;51.280;12.584;2022-12-18T12:19:06;11.33;;;6.43;;
14001;SDS011;7076;51.280;12.584;2022-12-18T12:24:22;14.00;;;7.33;;
14001;SDS011;7076;51.280;12.584;2022-12-18T12:29:36;10.53;;;6.53;;
14001;SDS011;7076;51.280;12.584;2022-12-18T12:34:45;11.77;;;7.23;;
14001;SDS011;7076;51.280;12.584;2022-12-18T12:40:04;11.93;;;7.10;;
14001;SDS011;7076;51.280;12.584;2022-12-18T12:45:28;13.20;;;7.83;;
14001;SDS011;7076;51.280;12.584;2022-12-18T12:50:35;10.97;;;6.87;;
14001;SDS011;7076;51.280;12.584;2022-12-18T12:55:41;13.60;;;7.90;;
14001;SDS011;7076;51.280;12.584;2022-12-18T13:00:46;12.07;;;7.67;;
14001;SDS011;7076;51.280;12.584;2022-12-18T13:05:53;14.10;;;8.83;;
14001;SDS011;7076;51.280;12.584;2022-12-18T13:10:59;12.67;;;8.00;;
14001;SDS011;7076;51.280;12.584;2022-12-18T13:16:18;16.60;;;9.43;;
14001;SDS011;7076;51.280;12.584;2022-12-18T13:21:23;14.70;;;9.33;;
14001;SDS011;7076;51.280;12.584;2022-12-18T13:26:30;13.07;;;8.90;;
14001;SDS011;7076;51.280;12.584;2022-12-18T13:42:45;23.70;;;14.43;;
14001;SDS011;7076;51.280;12.584;2022-12-18T13:48:14;17.03;;;10.60;;
14001;SDS011;7076;51.280;12.584;2022-12-18T13:53:23;16.27;;;8.57;;
14001;SDS011;7076;51.280;12.584;2022-12-18T13:58:30;17.13;;;9.90;;
14001;SDS011;7076;51.280;12.584;2022-12-18T14:03:33;15.27;;;9.17;;
14001;SDS011;7076;51.280;12.584;2022-12-18T14:08:37;15.73;;;9.70;;
14001;SDS011;7076;51.280;12.584;2022-12-18T14:13:43;17.83;;;9.27;;
14001;SDS011;7076;51.280;12.584;2022-12-18T14:18:48;15.63;;;9.13;;
14001;SDS011;7076;51.280;12.584;2022-12-18T14:24:11;19.00;;;10.47;;
14001;SDS011;7076;51.280;12.584;2022-12-18T14:29:25;17.47;;;9.87;;
14001;SDS011;7076;51.280;12.584;2022-12-18T14:34:29;14.97;;;8.97;;
14001;SDS011;7076;51.280;12.584;2022-12-18T14:39:32;17.40;;;9.07;;
14001;SDS011;7076;51.280;12.584;2022-12-18T14:44:36;16.93;;;9.07;;
14001;SDS011;7076;51.280;12.584;2022-12-18T14:49:58;17.80;;;10.07;;
14001;SDS011;7076;51.280;12.584;2022-12-18T14:55:02;21.03;;;12.17;;
14001;SDS011;7076;51.280;12.584;2022-12-18T15:00:10;23.53;;;13.97;;
14001;SDS011;7076;51.280;12.584;2022-12-18T15:05:20;18.83;;;10.60;;
14001;SDS011;7076;51.280;12.584;2022-12-18T15:10:29;16.97;;;8.30;;
14001;SDS011;7076;51.280;12.584;2022-12-18T15:15:47;16.77;;;8.73;;
14001;SDS011;7076;51.280;12.584;2022-12-18T15:20:51;19.47;;;9.53;;
14001;SDS011;7076;51.280;12.584;2022-12-18T15:25:56;18.17;;;9.73;;
14001;SDS011;7076;51.280;12.584;2022-12-18T15:31:03;15.70;;;9.03;;
14001;SDS011;7076;51.280;12.584;2022-12-18T15:36:09;16.03;;;9.20;;
14001;SDS011;7076;51.280;12.584;2022-12-18T15:41:15;15.10;;;9.90;;
14001;SDS011;7076;51.280;12.584;2022-12-18T15:46:26;16.13;;;9.07;;
14001;SDS011;7076;51.280;12.584;2022-12-18T15:51:31;13.93;;;9.20;;
14001;SDS011;7076;51.280;12.584;2022-12-18T15:56:35;20.80;;;11.77;;
14001;SDS011;7076;51.280;12.584;2022-12-18T16:02:14;16.53;;;9.33;;
14001;SDS011;7076;51.280;12.584;2022-12-18T16:07:19;15.47;;;8.40;;
14001;SDS011;7076;51.280;12.584;2022-12-18T16:12:26;14.53;;;7.90;;
14001;SDS011;7076;51.280;12.584;2022-12-18T16:17:30;14.53;;;8.80;;
14001;SDS011;7076;51.280;12.584;2022-12-18T16:22:33;16.80;;;8.63;;
14001;SDS011;7076;51.280;12.584;2022-12-18T16:27:36;16.63;;;8.13;;
14001;SDS011;7076;51.280;12.584;2022-12-18T16:32:40;12.93;;;7.40;;
14001;SDS011;7076;51.280;12.584;2022-12-18T16:37:43;15.63;;;8.03;;
14001;SDS011;7076;51.280;12.584;2022-12-18T16:42:46;14.93;;;8.17;;
14001;SDS011;7076;51.280;12.584;2022-12-18T16:47:50;10.97;;;7.20;;
14001;SDS011;7076;51.280;12.584;2022-12-18T16:52:53;14.33;;;7.33;;
14001;SDS011;7076;51.280;12.584;2022-12-18T16:57:56;11.97;;;7.53;;
14001;SDS011;7076;51.280;12.584;2022-12-18T17:03:00;15.83;;;7.90;;
14001;SDS011;7076;51.280;12.584;2022-12-18T17:08:03;15.43;;;8.20;;
14001;SDS011;7076;51.280;12.584;2022-12-18T17:13:06;17.77;;;9.60;;
14001;SDS011;7076;51.280;12.584;2022-12-18T17:18:10;17.03;;;10.47;;
14001;SDS011;7076;51.280;12.584;2022-12-18T17:23:13;17.27;;;8.90;;
14001;SDS011;7076;51.280;12.584;2022-12-18T17:28:16;17.10;;;8.87;;
14001;SDS011;7076;51.280;12.584;2022-12-18T17:33:20;15.03;;;7.53;;
14001;SDS011;7076;51.280;12.584;2022-12-18T17:38:23;11.30;;;6.43;;
14001;SDS011;7076;51.280;12.584;2022-12-18T17:43:26;11.77;;;5.70;;
14001;SDS011;7076;51.280;12.584;2022-12-18T17:48:30;13.53;;;6.93;;
14001;SDS011;7076;51.280;12.584;2022-12-18T17:53:33;12.10;;;6.47;;
14001;SDS011;7076;51.280;12.584;2022-12-18T17:58:36;12.37;;;6.43;;
14001;SDS011;7076;51.280;12.584;2022-12-18T18:03:41;10.43;;;5.97;;
14001;SDS011;7076;51.280;12.584;2022-12-18T18:08:45;12.43;;;6.47;;
14001;SDS011;7076;51.280;12.584;2022-12-18T18:13:48;11.70;;;6.03;;
14001;SDS011;7076;51.280;12.584;2022-12-18T18:19:04;14.83;;;6.23;;
14001;SDS011;7076;51.280;12.584;2022-12-18T18:24:08;13.43;;;6.63;;
14001;SDS011;7076;51.280;12.584;2022-12-18T18:29:13;8.80;;;5.57;;
14001;SDS011;7076;51.280;12.584;2022-12-18T18:34:20;10.37;;;6.07;;
14001;SDS011;7076;51.280;12.584;2022-12-18T18:39:23;16.97;;;8.83;;
14001;SDS011;7076;51.280;12.584;2022-12-18T18:44:27;19.57;;;8.57;;
14001;SDS011;7076;51.280;12.584;2022-12-18T18:49:31;15.63;;;7.70;;
14001;SDS011;7076;51.280;12.584;2022-12-18T18:54:34;12.23;;;6.97;;
14001;SDS011;7076;51.280;12.584;2022-12-18T18:59:37;11.20;;;7.20;;
14001;SDS011;7076;51.280;12.584;2022-12-18T19:04:41;12.80;;;6.20;;
14001;SDS011;7076;51.280;12.584;2022-12-18T19:09:47;13.60;;;6.47;;
14001;SDS011;7076;51.280;12.584;2022-12-18T19:14:52;10.43;;;5.90;;
14001;SDS011;7076;51.280;12.584;2022-12-18T19:19:57;11.33;;;6.37;;
14001;SDS011;7076;51.280;12.584;2022-12-18T19:24:59;13.03;;;7.33;;
14001;SDS011;7076;51.280;12.584;2022-12-18T19:30:03;13.37;;;6.63;;
14001;SDS011;7076;51.280;12.584;2022-12-18T19:35:08;16.93;;;8.63;;
14001;SDS011;7076;51.280;12.584;2022-12-18T19:40:11;16.73;;;8.07;;
14001;SDS011;7076;51.280;12.584;2022-12-18T19:45:15;16.00;;;7.33;;
14001;SDS011;7076;51.280;12.584;2022-12-18T19:50:19;15.70;;;7.17;;
14001;SDS011;7076;51.280;12.584;2022-12-18T19:55:22;19.97;;;9.83;;
14001;SDS011;7076;51.280;12.584;2022-12-18T20:00:25;22.70;;;11.53;;
14001;SDS011;7076;51.280;12.584;2022-12-18T20:05:29;14.03;;;7.67;;
14001;SDS011;7076;51.280;12.584;2022-12-18T20:10:32;13.97;;;6.67;;
14001;SDS011;7076;51.280;12.584;2022-12-18T20:15:35;12.23;;;6.60;;
14001;SDS011;7076;51.280;12.584;2022-12-18T20:20:46;12.00;;;6.23;;
14001;SDS011;7076;51.280;12.584;2022-12-18T20:25:51;12.60;;;6.53;;
14001;SDS011;7076;51.280;12.584;2022-12-18T20:30:57;13.77;;;6.33;;
14001;SDS011;7076;51.280;12.584;2022-12-18T20:36:03;9.50;;;5.47;;
14001;SDS011;7076;51.280;12.584;2022-12-18T20:41:09;12.57;;;6.30;;
14001;SDS011;7076;51.280;12.584;2022-12-18T20:46:14;13.40;;;6.60;;
14001;SDS011;7076;51.280;12.584;2022-12-18T20:51:20;14.77;;;6.73;;
14001;SDS011;7076;51.280;12.584;2022-12-18T20:56:23;13.63;;;6.27;;
14001;SDS011;7076;51.280;12.584;2022-12-18T21:01:27;15.10;;;6.60;;
14001;SDS011;7076;51.280;12.584;2022-12-18T21:06:32;11.53;;;5.77;;
14001;SDS011;7076;51.280;12.584;2022-12-18T21:11:35;9.73;;;5.63;;
14001;SDS011;7076;51.280;12.584;2022-12-18T21:16:56;10.77;;;5.93;;
14001;SDS011;7076;51.280;12.584;2022-12-18T21:22:02;11.07;;;6.17;;
14001;SDS011;7076;51.280;12.584;2022-12-18T21:27:05;11.70;;;5.23;;
14001;SDS011;7076;51.280;12.584;2022-12-18T21:32:10;11.20;;;5.37;;
14001;SDS011;7076;51.280;12.584;2022-12-18T21:37:15;11.43;;;5.73;;
14001;SDS011;7076;51.280;12.584;2022-12-18T21:42:18;9.50;;;5.13;;
14001;SDS011;7076;51.280;12.584;2022-12-18T21:47:38;12.93;;;6.30;;
14001;SDS011;7076;51.280;12.584;2022-12-18T21:52:42;16.83;;;8.37;;
14001;SDS011;7076;51.280;12.584;2022-12-18T21:57:45;12.30;;;6.27;;
14001;SDS011;7076;51.280;12.584;2022-12-18T22:02:48;15.10;;;7.17;;
14001;SDS011;7076;51.280;12.584;2022-12-18T22:08:12;11.97;;;6.77;;
14001;SDS011;7076;51.280;12.584;2022-12-18T22:13:22;15.60;;;7.87;;
14001;SDS011;7076;51.280;12.584;2022-12-18T22:18:28;14.50;;;7.73;;
14001;SDS011;7076;51.280;12.584;2022-12-18T22:23:33;17.60;;;8.57;;
14001;SDS011;7076;51.280;12.584;2022-12-18T22:28:36;14.13;;;7.40;;
14001;SDS011;7076;51.280;12.584;2022-12-18T22:33:56;18.50;;;7.87;;
14001;SDS011;7076;51.280;12.584;2022-12-18T22:39:00;16.43;;;8.03;;
14001;SDS011;7076;51.280;12.584;2022-12-18T22:44:03;14.33;;;7.03;;
14001;SDS011;7076;51.280;12.584;2022-12-18T22:49:10;12.13;;;6.23;;
14001;SDS011;7076;51.280;12.584;2022-12-18T22:54:15;15.50;;;7.53;;
14001;SDS011;7076;51.280;12.584;2022-12-18T22:59:19;15.83;;;7.43;;
14001;SDS011;7076;51.280;12.584;2022-12-18T23:04:23;12.67;;;6.63;;
14001;SDS011;7076;51.280;12.584;2022-12-18T23:09:38;12.93;;;6.93;;
14001;SDS011;7076;51.280;12.584;2022-12-18T23:14:40;12.70;;;6.43;;
14001;SDS011;7076;51.280;12.584;2022-12-18T23:19:43;12.73;;;6.57;;
14001;SDS011;7076;51.280;12.584;2022-12-18T23:24:51;15.97;;;7.03;;
14001;SDS011;7076;51.280;12.584;2022-12-18T23:29:53;14.50;;;6.80;;
14001;SDS011;7076;51.280;12.584;2022-12-18T23:34:59;12.97;;;6.67;;
14001;SDS011;7076;51.280;12.584;2022-12-18T23:40:03;14.77;;;6.97;;
14001;SDS011;7076;51.280;12.584;2022-12-18T23:45:07;13.90;;;7.07;;
14001;SDS011;7076;51.280;12.584;2022-12-18T23:50:18;14.10;;;7.10;;
14001;SDS011;7076;51.280;12.584;2022-12-18T23:55:31;19.00;;;8.30;;
